sensor_id;sensor_type;location;lat;lon;timestamp;temperature;humidity
15543;DHT22;7873;52.230;12.856;2022-09-27T00:00:35;24.10;48.90
15543;DHT22;7873;52.230;12.856;2022-09-27T00:03:02;24.10;48.70
15543;DHT22;7873;52.230;12.856;2022-09-27T00:05:30;24.20;48.50
15543;DHT22;7873;52.230;12.856;2022-09-27T00:07:57;24.20;48.40
15543;DHT22;7873;52.230;12.856;2022-09-27T00:10:24;24.10;48.60
15543;DHT22;7873;52.230;12.856;2022-09-27T00:12:50;24.10;48.70
15543;DHT22;7873;52.230;12.856;2022-09-27T00:15:17;24.10;48.70
15543;DHT22;7873;52.230;12.856;2022-09-27T00:17:44;24.10;48.80
15543;DHT22;7873;52.230;12.856;2022-09-27T00:20:11;24.10;48.70
15543;DHT22;7873;52.230;12.856;2022-09-27T00:22:39;24.10;48.80
15543;DHT22;7873;52.230;12.856;2022-09-27T00:25:06;24.10;48.80
15543;DHT22;7873;52.230;12.856;2022-09-27T00:27:33;24.10;48.80
15543;DHT22;7873;52.230;12.856;2022-09-27T00:29:59;24.10;48.80
15543;DHT22;7873;52.230;12.856;2022-09-27T00:32:26;24.10;48.80
15543;DHT22;7873;52.230;12.856;2022-09-27T00:34:53;24.10;49.00
15543;DHT22;7873;52.230;12.856;2022-09-27T00:37:19;24.00;49.00
15543;DHT22;7873;52.230;12.856;2022-09-27T00:39:47;24.00;49.70
15543;DHT22;7873;52.230;12.856;2022-09-27T00:42:14;24.00;49.10
15543;DHT22;7873;52.230;12.856;2022-09-27T00:44:53;23.90;49.10
15543;DHT22;7873;52.230;12.856;2022-09-27T00:47:26;23.90;49.10
15543;DHT22;7873;52.230;12.856;2022-09-27T00:49:59;23.90;49.20
15543;DHT22;7873;52.230;12.856;2022-09-27T00:52:30;23.90;49.20
15543;DHT22;7873;52.230;12.856;2022-09-27T00:55:03;23.90;49.20
15543;DHT22;7873;52.230;12.856;2022-09-27T00:57:34;23.90;49.20
15543;DHT22;7873;52.230;12.856;2022-09-27T01:00:03;23.90;50.00
15543;DHT22;7873;52.230;12.856;2022-09-27T01:02:31;23.90;49.10
15543;DHT22;7873;52.230;12.856;2022-09-27T01:05:00;24.00;49.10
15543;DHT22;7873;52.230;12.856;2022-09-27T01:07:28;24.00;48.90
15543;DHT22;7873;52.230;12.856;2022-09-27T01:09:55;24.00;48.80
15543;DHT22;7873;52.230;12.856;2022-09-27T01:12:25;24.10;48.70
15543;DHT22;7873;52.230;12.856;2022-09-27T01:15:04;24.20;48.50
15543;DHT22;7873;52.230;12.856;2022-09-27T01:17:41;24.20;48.30
15543;DHT22;7873;52.230;12.856;2022-09-27T01:23:28;24.10;48.50
15543;DHT22;7873;52.230;12.856;2022-09-27T01:26:24;24.10;48.60
15543;DHT22;7873;52.230;12.856;2022-09-27T01:29:03;24.10;48.70
15543;DHT22;7873;52.230;12.856;2022-09-27T01:31:37;24.10;48.70
15543;DHT22;7873;52.230;12.856;2022-09-27T01:34:14;24.10;48.70
15543;DHT22;7873;52.230;12.856;2022-09-27T01:36:48;24.10;48.70
15543;DHT22;7873;52.230;12.856;2022-09-27T01:39:22;24.10;48.60
15543;DHT22;7873;52.230;12.856;2022-09-27T01:41:59;24.10;48.70
15543;DHT22;7873;52.230;12.856;2022-09-27T01:44:31;24.10;48.70
15543;DHT22;7873;52.230;12.856;2022-09-27T01:47:02;24.10;48.70
15543;DHT22;7873;52.230;12.856;2022-09-27T01:49:31;24.10;48.70
15543;DHT22;7873;52.230;12.856;2022-09-27T01:52:02;24.10;48.70
15543;DHT22;7873;52.230;12.856;2022-09-27T01:54:34;24.10;48.80
15543;DHT22;7873;52.230;12.856;2022-09-27T01:57:04;24.00;49.00
15543;DHT22;7873;52.230;12.856;2022-09-27T01:59:35;24.00;49.10
15543;DHT22;7873;52.230;12.856;2022-09-27T02:02:08;23.90;49.10
15543;DHT22;7873;52.230;12.856;2022-09-27T02:04:36;23.90;49.30
15543;DHT22;7873;52.230;12.856;2022-09-27T02:07:07;23.90;49.30
15543;DHT22;7873;52.230;12.856;2022-09-27T02:09:37;24.00;49.40
15543;DHT22;7873;52.230;12.856;2022-09-27T02:12:07;23.90;49.20
15543;DHT22;7873;52.230;12.856;2022-09-27T02:14:39;23.90;49.30
15543;DHT22;7873;52.230;12.856;2022-09-27T02:17:13;23.90;49.20
15543;DHT22;7873;52.230;12.856;2022-09-27T02:19:49;24.00;49.00
15543;DHT22;7873;52.230;12.856;2022-09-27T02:22:21;24.00;49.10
15543;DHT22;7873;52.230;12.856;2022-09-27T02:24:56;24.10;48.90
15543;DHT22;7873;52.230;12.856;2022-09-27T02:27:26;24.10;48.80
15543;DHT22;7873;52.230;12.856;2022-09-27T02:29:56;24.10;48.80
15543;DHT22;7873;52.230;12.856;2022-09-27T02:32:27;24.10;48.80
15543;DHT22;7873;52.230;12.856;2022-09-27T02:34:54;24.10;48.80
15543;DHT22;7873;52.230;12.856;2022-09-27T02:37:24;24.10;48.70
15543;DHT22;7873;52.230;12.856;2022-09-27T02:39:50;24.10;48.70
15543;DHT22;7873;52.230;12.856;2022-09-27T02:42:17;24.10;48.70
15543;DHT22;7873;52.230;12.856;2022-09-27T02:44:44;24.10;48.70
15543;DHT22;7873;52.230;12.856;2022-09-27T02:47:18;24.10;48.80
15543;DHT22;7873;52.230;12.856;2022-09-27T02:49:59;24.10;48.80
15543;DHT22;7873;52.230;12.856;2022-09-27T02:52:41;24.10;48.80
15543;DHT22;7873;52.230;12.856;2022-09-27T02:55:18;24.10;48.80
15543;DHT22;7873;52.230;12.856;2022-09-27T02:57:56;24.10;48.90
15543;DHT22;7873;52.230;12.856;2022-09-27T03:00:37;24.10;48.90
15543;DHT22;7873;52.230;12.856;2022-09-27T03:03:16;24.00;49.00
15543;DHT22;7873;52.230;12.856;2022-09-27T03:05:48;24.00;49.10
15543;DHT22;7873;52.230;12.856;2022-09-27T03:08:18;23.90;49.20
15543;DHT22;7873;52.230;12.856;2022-09-27T03:10:45;23.90;49.10
15543;DHT22;7873;52.230;12.856;2022-09-27T03:13:11;23.90;49.10
15543;DHT22;7873;52.230;12.856;2022-09-27T03:15:38;24.00;49.10
15543;DHT22;7873;52.230;12.856;2022-09-27T03:18:05;24.10;48.70
15543;DHT22;7873;52.230;12.856;2022-09-27T03:20:33;24.40;48.30
15543;DHT22;7873;52.230;12.856;2022-09-27T03:23:00;24.40;48.40
15543;DHT22;7873;52.230;12.856;2022-09-27T03:25:26;24.40;48.60
15543;DHT22;7873;52.230;12.856;2022-09-27T03:27:53;24.50;48.40
15543;DHT22;7873;52.230;12.856;2022-09-27T03:30:19;24.50;48.50
15543;DHT22;7873;52.230;12.856;2022-09-27T03:32:47;24.50;48.90
15543;DHT22;7873;52.230;12.856;2022-09-27T03:35:13;24.40;49.30
15543;DHT22;7873;52.230;12.856;2022-09-27T03:37:41;24.50;49.20
15543;DHT22;7873;52.230;12.856;2022-09-27T03:40:09;24.50;49.40
15543;DHT22;7873;52.230;12.856;2022-09-27T03:42:36;24.50;49.50
15543;DHT22;7873;52.230;12.856;2022-09-27T03:45:03;24.50;49.80
15543;DHT22;7873;52.230;12.856;2022-09-27T03:47:30;24.40;50.00
15543;DHT22;7873;52.230;12.856;2022-09-27T03:49:57;24.50;50.00
15543;DHT22;7873;52.230;12.856;2022-09-27T03:52:24;24.60;49.90
15543;DHT22;7873;52.230;12.856;2022-09-27T03:54:52;24.60;49.90
15543;DHT22;7873;52.230;12.856;2022-09-27T03:57:18;24.50;50.50
15543;DHT22;7873;52.230;12.856;2022-09-27T03:59:45;24.50;50.40
15543;DHT22;7873;52.230;12.856;2022-09-27T04:02:12;24.60;49.80
15543;DHT22;7873;52.230;12.856;2022-09-27T04:04:38;24.50;49.80
15543;DHT22;7873;52.230;12.856;2022-09-27T04:07:05;24.50;49.70
15543;DHT22;7873;52.230;12.856;2022-09-27T04:09:32;24.50;49.90
15543;DHT22;7873;52.230;12.856;2022-09-27T04:12:00;24.50;50.00
15543;DHT22;7873;52.230;12.856;2022-09-27T04:14:27;24.40;49.90
15543;DHT22;7873;52.230;12.856;2022-09-27T04:16:54;24.30;49.40
15543;DHT22;7873;52.230;12.856;2022-09-27T04:19:20;24.30;49.60
15543;DHT22;7873;52.230;12.856;2022-09-27T04:21:47;24.30;49.60
15543;DHT22;7873;52.230;12.856;2022-09-27T04:24:14;24.30;49.80
15543;DHT22;7873;52.230;12.856;2022-09-27T04:26:40;24.40;49.40
15543;DHT22;7873;52.230;12.856;2022-09-27T04:29:08;24.40;49.50
15543;DHT22;7873;52.230;12.856;2022-09-27T04:31:35;24.30;49.60
15543;DHT22;7873;52.230;12.856;2022-09-27T04:34:02;24.30;49.90
15543;DHT22;7873;52.230;12.856;2022-09-27T04:36:29;24.30;48.80
15543;DHT22;7873;52.230;12.856;2022-09-27T04:38:56;24.30;48.40
15543;DHT22;7873;52.230;12.856;2022-09-27T04:41:25;24.20;48.10
15543;DHT22;7873;52.230;12.856;2022-09-27T04:43:53;24.20;48.50
15543;DHT22;7873;52.230;12.856;2022-09-27T04:46:22;24.20;48.80
15543;DHT22;7873;52.230;12.856;2022-09-27T04:48:49;24.30;48.00
15543;DHT22;7873;52.230;12.856;2022-09-27T04:51:16;24.20;48.50
15543;DHT22;7873;52.230;12.856;2022-09-27T04:53:44;24.10;48.40
15543;DHT22;7873;52.230;12.856;2022-09-27T04:56:11;24.10;48.60
15543;DHT22;7873;52.230;12.856;2022-09-27T04:58:38;24.20;48.90
15543;DHT22;7873;52.230;12.856;2022-09-27T05:01:05;24.30;48.80
15543;DHT22;7873;52.230;12.856;2022-09-27T05:03:34;24.30;48.60
15543;DHT22;7873;52.230;12.856;2022-09-27T05:06:02;24.30;48.70
15543;DHT22;7873;52.230;12.856;2022-09-27T05:08:29;24.30;49.40
15543;DHT22;7873;52.230;12.856;2022-09-27T05:10:55;24.20;48.80
15543;DHT22;7873;52.230;12.856;2022-09-27T05:13:22;24.20;48.80
15543;DHT22;7873;52.230;12.856;2022-09-27T05:15:49;24.30;48.80
15543;DHT22;7873;52.230;12.856;2022-09-27T05:18:16;24.20;48.90
15543;DHT22;7873;52.230;12.856;2022-09-27T05:20:44;24.20;49.10
15543;DHT22;7873;52.230;12.856;2022-09-27T05:23:11;24.00;49.40
15543;DHT22;7873;52.230;12.856;2022-09-27T05:25:38;23.90;49.70
15543;DHT22;7873;52.230;12.856;2022-09-27T05:28:04;23.90;49.80
15543;DHT22;7873;52.230;12.856;2022-09-27T05:30:33;23.90;49.80
15543;DHT22;7873;52.230;12.856;2022-09-27T05:33:00;23.90;49.80
15543;DHT22;7873;52.230;12.856;2022-09-27T05:35:27;23.80;50.00
15543;DHT22;7873;52.230;12.856;2022-09-27T05:37:55;23.80;50.10
15543;DHT22;7873;52.230;12.856;2022-09-27T05:40:24;23.80;50.00
15543;DHT22;7873;52.230;12.856;2022-09-27T05:42:51;23.90;49.80
15543;DHT22;7873;52.230;12.856;2022-09-27T05:45:18;23.90;49.70
15543;DHT22;7873;52.230;12.856;2022-09-27T05:47:53;23.90;49.50
15543;DHT22;7873;52.230;12.856;2022-09-27T05:50:21;23.90;49.80
15543;DHT22;7873;52.230;12.856;2022-09-27T05:52:47;23.90;49.80
15543;DHT22;7873;52.230;12.856;2022-09-27T05:55:15;23.70;50.00
15543;DHT22;7873;52.230;12.856;2022-09-27T05:57:52;23.70;50.30
15543;DHT22;7873;52.230;12.856;2022-09-27T06:00:19;23.60;50.40
15543;DHT22;7873;52.230;12.856;2022-09-27T06:02:51;23.70;50.40
15543;DHT22;7873;52.230;12.856;2022-09-27T06:05:19;23.70;50.40
15543;DHT22;7873;52.230;12.856;2022-09-27T06:07:45;23.60;50.60
15543;DHT22;7873;52.230;12.856;2022-09-27T06:10:13;23.60;50.40
15543;DHT22;7873;52.230;12.856;2022-09-27T06:12:42;23.60;50.70
15543;DHT22;7873;52.230;12.856;2022-09-27T06:15:09;23.70;50.30
15543;DHT22;7873;52.230;12.856;2022-09-27T06:17:36;23.50;50.70
15543;DHT22;7873;52.230;12.856;2022-09-27T06:20:03;23.50;50.60
15543;DHT22;7873;52.230;12.856;2022-09-27T06:22:30;23.60;50.40
15543;DHT22;7873;52.230;12.856;2022-09-27T06:24:57;23.60;50.50
15543;DHT22;7873;52.230;12.856;2022-09-27T06:27:25;23.60;50.60
15543;DHT22;7873;52.230;12.856;2022-09-27T06:29:52;23.50;50.70
15543;DHT22;7873;52.230;12.856;2022-09-27T06:32:20;23.40;50.70
15543;DHT22;7873;52.230;12.856;2022-09-27T06:34:46;23.40;50.70
15543;DHT22;7873;52.230;12.856;2022-09-27T06:37:13;23.50;50.50
15543;DHT22;7873;52.230;12.856;2022-09-27T06:39:40;23.50;50.40
15543;DHT22;7873;52.230;12.856;2022-09-27T06:42:07;23.60;50.20
15543;DHT22;7873;52.230;12.856;2022-09-27T06:44:36;23.50;51.20
15543;DHT22;7873;52.230;12.856;2022-09-27T06:47:03;23.50;50.50
15543;DHT22;7873;52.230;12.856;2022-09-27T06:49:30;23.50;50.60
15543;DHT22;7873;52.230;12.856;2022-09-27T06:51:56;23.50;50.70
15543;DHT22;7873;52.230;12.856;2022-09-27T06:54:23;23.40;50.80
15543;DHT22;7873;52.230;12.856;2022-09-27T06:56:50;23.40;50.80
15543;DHT22;7873;52.230;12.856;2022-09-27T06:59:17;23.40;50.70
15543;DHT22;7873;52.230;12.856;2022-09-27T07:02:02;23.40;50.50
15543;DHT22;7873;52.230;12.856;2022-09-27T07:04:29;23.50;50.50
15543;DHT22;7873;52.230;12.856;2022-09-27T07:06:56;23.50;50.40
15543;DHT22;7873;52.230;12.856;2022-09-27T07:09:23;23.50;50.40
15543;DHT22;7873;52.230;12.856;2022-09-27T07:11:50;23.50;50.20
15543;DHT22;7873;52.230;12.856;2022-09-27T07:14:19;23.50;50.30
15543;DHT22;7873;52.230;12.856;2022-09-27T07:16:46;23.40;50.60
15543;DHT22;7873;52.230;12.856;2022-09-27T07:19:14;23.40;50.50
15543;DHT22;7873;52.230;12.856;2022-09-27T07:21:42;23.40;50.70
15543;DHT22;7873;52.230;12.856;2022-09-27T07:24:09;23.40;50.50
15543;DHT22;7873;52.230;12.856;2022-09-27T07:26:36;23.40;50.50
15543;DHT22;7873;52.230;12.856;2022-09-27T07:29:02;23.50;50.30
15543;DHT22;7873;52.230;12.856;2022-09-27T07:31:29;23.40;50.60
15543;DHT22;7873;52.230;12.856;2022-09-27T07:33:55;23.40;50.60
15543;DHT22;7873;52.230;12.856;2022-09-27T07:36:23;23.50;51.20
15543;DHT22;7873;52.230;12.856;2022-09-27T07:38:50;23.40;50.40
15543;DHT22;7873;52.230;12.856;2022-09-27T07:41:17;23.60;50.10
15543;DHT22;7873;52.230;12.856;2022-09-27T07:43:44;23.50;50.20
15543;DHT22;7873;52.230;12.856;2022-09-27T07:46:11;23.50;50.40
15543;DHT22;7873;52.230;12.856;2022-09-27T07:48:38;23.50;50.20
15543;DHT22;7873;52.230;12.856;2022-09-27T07:51:05;23.50;50.20
15543;DHT22;7873;52.230;12.856;2022-09-27T07:53:36;23.50;50.20
15543;DHT22;7873;52.230;12.856;2022-09-27T07:56:04;23.50;50.20
15543;DHT22;7873;52.230;12.856;2022-09-27T07:58:31;23.60;50.00
15543;DHT22;7873;52.230;12.856;2022-09-27T08:00:57;23.50;50.20
15543;DHT22;7873;52.230;12.856;2022-09-27T08:03:24;23.50;50.20
15543;DHT22;7873;52.230;12.856;2022-09-27T08:05:51;23.40;50.20
15543;DHT22;7873;52.230;12.856;2022-09-27T08:08:18;23.50;50.00
15543;DHT22;7873;52.230;12.856;2022-09-27T08:10:46;23.50;50.70
15543;DHT22;7873;52.230;12.856;2022-09-27T08:13:13;23.50;50.20
15543;DHT22;7873;52.230;12.856;2022-09-27T08:15:42;23.50;50.20
15543;DHT22;7873;52.230;12.856;2022-09-27T08:18:08;23.40;50.30
15543;DHT22;7873;52.230;12.856;2022-09-27T08:20:35;23.40;50.20
15543;DHT22;7873;52.230;12.856;2022-09-27T08:23:02;23.40;50.50
15543;DHT22;7873;52.230;12.856;2022-09-27T08:25:29;23.50;50.20
15543;DHT22;7873;52.230;12.856;2022-09-27T08:27:57;23.50;50.10
15543;DHT22;7873;52.230;12.856;2022-09-27T08:30:26;23.40;50.20
15543;DHT22;7873;52.230;12.856;2022-09-27T08:32:55;23.40;50.20
15543;DHT22;7873;52.230;12.856;2022-09-27T08:35:22;23.40;50.40
15543;DHT22;7873;52.230;12.856;2022-09-27T08:37:53;23.30;50.50
15543;DHT22;7873;52.230;12.856;2022-09-27T08:40:20;23.20;50.70
15543;DHT22;7873;52.230;12.856;2022-09-27T08:42:55;23.30;50.50
15543;DHT22;7873;52.230;12.856;2022-09-27T08:45:30;23.20;50.70
15543;DHT22;7873;52.230;12.856;2022-09-27T08:48:00;23.40;50.40
15543;DHT22;7873;52.230;12.856;2022-09-27T08:50:30;23.40;50.20
15543;DHT22;7873;52.230;12.856;2022-09-27T08:52:59;23.60;49.50
15543;DHT22;7873;52.230;12.856;2022-09-27T08:55:30;23.70;48.70
15543;DHT22;7873;52.230;12.856;2022-09-27T08:58:03;23.70;48.80
15543;DHT22;7873;52.230;12.856;2022-09-27T09:00:37;23.70;49.50
15543;DHT22;7873;52.230;12.856;2022-09-27T09:03:04;23.60;49.90
15543;DHT22;7873;52.230;12.856;2022-09-27T09:05:32;23.50;49.20
15543;DHT22;7873;52.230;12.856;2022-09-27T09:08:14;23.50;49.50
15543;DHT22;7873;52.230;12.856;2022-09-27T09:10:50;23.60;49.20
15543;DHT22;7873;52.230;12.856;2022-09-27T09:13:42;23.50;49.20
15543;DHT22;7873;52.230;12.856;2022-09-27T09:16:24;23.50;49.40
15543;DHT22;7873;52.230;12.856;2022-09-27T09:19:07;23.60;49.00
15543;DHT22;7873;52.230;12.856;2022-09-27T09:21:47;23.60;48.90
15543;DHT22;7873;52.230;12.856;2022-09-27T09:24:24;23.60;48.80
15543;DHT22;7873;52.230;12.856;2022-09-27T09:27:04;23.50;49.00
15543;DHT22;7873;52.230;12.856;2022-09-27T09:29:44;23.60;48.90
15543;DHT22;7873;52.230;12.856;2022-09-27T09:32:28;23.60;49.00
15543;DHT22;7873;52.230;12.856;2022-09-27T09:35:05;23.50;49.10
15543;DHT22;7873;52.230;12.856;2022-09-27T09:37:35;23.60;48.90
15543;DHT22;7873;52.230;12.856;2022-09-27T09:40:06;23.50;48.90
15543;DHT22;7873;52.230;12.856;2022-09-27T09:42:43;23.50;48.80
15543;DHT22;7873;52.230;12.856;2022-09-27T09:45:16;23.50;49.10
15543;DHT22;7873;52.230;12.856;2022-09-27T09:47:47;23.50;49.10
15543;DHT22;7873;52.230;12.856;2022-09-27T09:50:19;23.50;49.00
15543;DHT22;7873;52.230;12.856;2022-09-27T09:52:52;23.50;48.90
15543;DHT22;7873;52.230;12.856;2022-09-27T09:55:22;23.50;49.00
15543;DHT22;7873;52.230;12.856;2022-09-27T09:57:55;23.60;48.80
15543;DHT22;7873;52.230;12.856;2022-09-27T10:00:29;23.60;48.80
15543;DHT22;7873;52.230;12.856;2022-09-27T10:02:57;23.60;48.90
15543;DHT22;7873;52.230;12.856;2022-09-27T10:05:25;23.60;48.90
15543;DHT22;7873;52.230;12.856;2022-09-27T10:07:54;23.50;49.10
15543;DHT22;7873;52.230;12.856;2022-09-27T10:10:23;23.60;49.00
15543;DHT22;7873;52.230;12.856;2022-09-27T10:12:50;23.50;48.90
15543;DHT22;7873;52.230;12.856;2022-09-27T10:15:18;23.50;48.90
15543;DHT22;7873;52.230;12.856;2022-09-27T10:17:47;23.50;49.00
15543;DHT22;7873;52.230;12.856;2022-09-27T10:20:23;23.60;48.70
15543;DHT22;7873;52.230;12.856;2022-09-27T10:22:55;23.60;48.60
15543;DHT22;7873;52.230;12.856;2022-09-27T10:25:28;23.50;48.80
15543;DHT22;7873;52.230;12.856;2022-09-27T10:28:24;23.60;48.80
15543;DHT22;7873;52.230;12.856;2022-09-27T10:30:58;23.60;48.80
15543;DHT22;7873;52.230;12.856;2022-09-27T10:33:28;23.60;48.70
15543;DHT22;7873;52.230;12.856;2022-09-27T10:35:57;23.50;48.70
15543;DHT22;7873;52.230;12.856;2022-09-27T10:38:25;23.50;48.70
15543;DHT22;7873;52.230;12.856;2022-09-27T10:40:54;23.50;48.80
15543;DHT22;7873;52.230;12.856;2022-09-27T10:43:23;23.50;48.80
15543;DHT22;7873;52.230;12.856;2022-09-27T10:45:58;23.50;48.80
15543;DHT22;7873;52.230;12.856;2022-09-27T10:48:29;23.50;48.70
15543;DHT22;7873;52.230;12.856;2022-09-27T10:50:56;23.40;49.10
15543;DHT22;7873;52.230;12.856;2022-09-27T10:53:25;23.40;49.10
15543;DHT22;7873;52.230;12.856;2022-09-27T10:55:53;23.40;48.90
15543;DHT22;7873;52.230;12.856;2022-09-27T10:58:24;23.40;49.20
15543;DHT22;7873;52.230;12.856;2022-09-27T11:00:53;23.30;49.20
15543;DHT22;7873;52.230;12.856;2022-09-27T11:03:22;23.30;49.40
15543;DHT22;7873;52.230;12.856;2022-09-27T11:05:54;23.40;49.10
15543;DHT22;7873;52.230;12.856;2022-09-27T11:08:28;23.20;49.50
15543;DHT22;7873;52.230;12.856;2022-09-27T11:11:01;23.10;49.90
15543;DHT22;7873;52.230;12.856;2022-09-27T11:13:30;23.20;49.90
15543;DHT22;7873;52.230;12.856;2022-09-27T11:16:03;23.30;49.20
15543;DHT22;7873;52.230;12.856;2022-09-27T11:18:45;23.40;49.20
15543;DHT22;7873;52.230;12.856;2022-09-27T11:21:23;23.30;49.40
15543;DHT22;7873;52.230;12.856;2022-09-27T11:24:01;23.30;49.50
15543;DHT22;7873;52.230;12.856;2022-09-27T11:26:42;23.10;49.90
15543;DHT22;7873;52.230;12.856;2022-09-27T11:29:21;23.20;49.60
15543;DHT22;7873;52.230;12.856;2022-09-27T11:32:00;23.20;49.90
15543;DHT22;7873;52.230;12.856;2022-09-27T11:34:43;23.20;49.70
15543;DHT22;7873;52.230;12.856;2022-09-27T11:37:21;23.30;49.50
15543;DHT22;7873;52.230;12.856;2022-09-27T11:40:03;23.20;49.60
15543;DHT22;7873;52.230;12.856;2022-09-27T11:42:54;23.30;49.30
15543;DHT22;7873;52.230;12.856;2022-09-27T11:45:33;23.20;49.50
15543;DHT22;7873;52.230;12.856;2022-09-27T11:48:11;23.30;49.20
15543;DHT22;7873;52.230;12.856;2022-09-27T11:50:54;23.30;49.10
15543;DHT22;7873;52.230;12.856;2022-09-27T11:53:30;23.20;49.40
15543;DHT22;7873;52.230;12.856;2022-09-27T11:56:06;23.20;49.40
15543;DHT22;7873;52.230;12.856;2022-09-27T11:58:44;23.30;49.20
15543;DHT22;7873;52.230;12.856;2022-09-27T12:01:24;23.30;49.10
15543;DHT22;7873;52.230;12.856;2022-09-27T12:04:07;23.20;49.60
15543;DHT22;7873;52.230;12.856;2022-09-27T12:06:53;23.20;49.40
15543;DHT22;7873;52.230;12.856;2022-09-27T12:09:27;23.20;49.40
15543;DHT22;7873;52.230;12.856;2022-09-27T12:11:58;23.20;49.30
15543;DHT22;7873;52.230;12.856;2022-09-27T12:14:32;23.20;49.30
15543;DHT22;7873;52.230;12.856;2022-09-27T12:17:03;23.20;49.30
15543;DHT22;7873;52.230;12.856;2022-09-27T12:19:33;23.30;49.20
15543;DHT22;7873;52.230;12.856;2022-09-27T12:22:04;23.30;49.20
15543;DHT22;7873;52.230;12.856;2022-09-27T12:24:36;23.20;49.50
15543;DHT22;7873;52.230;12.856;2022-09-27T12:27:06;23.20;49.50
15543;DHT22;7873;52.230;12.856;2022-09-27T12:29:35;23.10;49.70
15543;DHT22;7873;52.230;12.856;2022-09-27T12:32:07;23.10;49.90
15543;DHT22;7873;52.230;12.856;2022-09-27T12:34:39;23.20;50.40
15543;DHT22;7873;52.230;12.856;2022-09-27T12:37:11;23.20;49.50
15543;DHT22;7873;52.230;12.856;2022-09-27T12:39:47;23.00;49.80
15543;DHT22;7873;52.230;12.856;2022-09-27T12:42:19;23.10;49.70
15543;DHT22;7873;52.230;12.856;2022-09-27T12:44:49;23.10;49.60
15543;DHT22;7873;52.230;12.856;2022-09-27T12:47:20;23.20;49.60
15543;DHT22;7873;52.230;12.856;2022-09-27T12:50:02;23.20;49.30
15543;DHT22;7873;52.230;12.856;2022-09-27T12:52:35;23.20;49.50
15543;DHT22;7873;52.230;12.856;2022-09-27T12:55:23;23.20;49.40
15543;DHT22;7873;52.230;12.856;2022-09-27T12:58:13;23.30;49.20
15543;DHT22;7873;52.230;12.856;2022-09-27T13:00:55;23.20;49.20
15543;DHT22;7873;52.230;12.856;2022-09-27T13:03:27;23.20;49.30
15543;DHT22;7873;52.230;12.856;2022-09-27T13:06:24;23.20;49.20
15543;DHT22;7873;52.230;12.856;2022-09-27T13:12:07;23.30;49.00
15543;DHT22;7873;52.230;12.856;2022-09-27T13:14:41;23.40;48.80
15543;DHT22;7873;52.230;12.856;2022-09-27T13:17:31;23.40;48.80
15543;DHT22;7873;52.230;12.856;2022-09-27T13:23:47;23.30;49.00
15543;DHT22;7873;52.230;12.856;2022-09-27T13:26:20;23.30;48.90
15543;DHT22;7873;52.230;12.856;2022-09-27T13:28:57;23.30;48.80
15543;DHT22;7873;52.230;12.856;2022-09-27T13:34:36;23.40;48.80
15543;DHT22;7873;52.230;12.856;2022-09-27T13:43:01;23.40;49.00
15543;DHT22;7873;52.230;12.856;2022-09-27T13:45:39;23.30;48.80
15543;DHT22;7873;52.230;12.856;2022-09-27T13:48:15;23.40;48.80
15543;DHT22;7873;52.230;12.856;2022-09-27T13:50:45;23.40;48.80
15543;DHT22;7873;52.230;12.856;2022-09-27T13:53:18;23.30;49.00
15543;DHT22;7873;52.230;12.856;2022-09-27T13:55:50;23.30;49.00
15543;DHT22;7873;52.230;12.856;2022-09-27T14:01:16;23.30;49.10
15543;DHT22;7873;52.230;12.856;2022-09-27T14:03:47;23.30;49.00
15543;DHT22;7873;52.230;12.856;2022-09-27T14:06:16;23.20;49.10
15543;DHT22;7873;52.230;12.856;2022-09-27T14:08:47;23.20;49.50
15543;DHT22;7873;52.230;12.856;2022-09-27T14:11:17;23.20;49.30
15543;DHT22;7873;52.230;12.856;2022-09-27T14:13:48;23.10;49.60
15543;DHT22;7873;52.230;12.856;2022-09-27T14:16:16;23.20;49.60
15543;DHT22;7873;52.230;12.856;2022-09-27T14:18:45;23.10;49.10
15543;DHT22;7873;52.230;12.856;2022-09-27T14:21:16;22.70;49.00
15543;DHT22;7873;52.230;12.856;2022-09-27T14:23:50;22.60;50.20
15543;DHT22;7873;52.230;12.856;2022-09-27T14:26:21;22.70;49.70
15543;DHT22;7873;52.230;12.856;2022-09-27T14:28:49;22.90;49.60
15543;DHT22;7873;52.230;12.856;2022-09-27T14:31:18;22.80;49.80
15543;DHT22;7873;52.230;12.856;2022-09-27T14:33:47;22.70;50.10
15543;DHT22;7873;52.230;12.856;2022-09-27T14:36:18;22.90;50.70
15543;DHT22;7873;52.230;12.856;2022-09-27T14:39:12;23.10;50.60
15543;DHT22;7873;52.230;12.856;2022-09-27T14:41:41;23.20;50.50
15543;DHT22;7873;52.230;12.856;2022-09-27T14:44:13;23.30;50.30
15543;DHT22;7873;52.230;12.856;2022-09-27T14:46:42;23.20;50.00
15543;DHT22;7873;52.230;12.856;2022-09-27T14:49:11;23.20;50.60
15543;DHT22;7873;52.230;12.856;2022-09-27T14:51:43;23.10;50.90
15543;DHT22;7873;52.230;12.856;2022-09-27T14:54:19;23.40;50.70
15543;DHT22;7873;52.230;12.856;2022-09-27T14:56:49;23.40;49.90
15543;DHT22;7873;52.230;12.856;2022-09-27T14:59:18;23.30;49.50
15543;DHT22;7873;52.230;12.856;2022-09-27T15:01:53;23.30;49.60
15543;DHT22;7873;52.230;12.856;2022-09-27T15:04:20;23.20;49.70
15543;DHT22;7873;52.230;12.856;2022-09-27T15:06:48;23.40;50.30
15543;DHT22;7873;52.230;12.856;2022-09-27T15:09:16;23.40;50.80
15543;DHT22;7873;52.230;12.856;2022-09-27T15:11:44;23.40;51.40
15543;DHT22;7873;52.230;12.856;2022-09-27T15:14:16;23.40;51.00
15543;DHT22;7873;52.230;12.856;2022-09-27T15:16:45;23.50;51.40
15543;DHT22;7873;52.230;12.856;2022-09-27T15:19:14;23.50;51.20
15543;DHT22;7873;52.230;12.856;2022-09-27T15:21:43;23.60;51.10
15543;DHT22;7873;52.230;12.856;2022-09-27T15:27:01;23.60;51.30
15543;DHT22;7873;52.230;12.856;2022-09-27T15:29:29;23.60;51.40
15543;DHT22;7873;52.230;12.856;2022-09-27T15:31:59;23.60;50.90
15543;DHT22;7873;52.230;12.856;2022-09-27T15:34:30;23.50;50.90
15543;DHT22;7873;52.230;12.856;2022-09-27T15:36:59;23.60;50.50
15543;DHT22;7873;52.230;12.856;2022-09-27T15:39:28;23.70;50.90
15543;DHT22;7873;52.230;12.856;2022-09-27T15:42:02;23.70;49.90
15543;DHT22;7873;52.230;12.856;2022-09-27T15:44:43;23.60;50.30
15543;DHT22;7873;52.230;12.856;2022-09-27T15:53:03;23.40;50.50
15543;DHT22;7873;52.230;12.856;2022-09-27T15:55:31;23.30;50.70
15543;DHT22;7873;52.230;12.856;2022-09-27T15:58:02;23.30;50.10
15543;DHT22;7873;52.230;12.856;2022-09-27T16:00:31;23.30;50.70
15543;DHT22;7873;52.230;12.856;2022-09-27T16:02:59;23.30;50.50
15543;DHT22;7873;52.230;12.856;2022-09-27T16:05:26;23.30;50.20
15543;DHT22;7873;52.230;12.856;2022-09-27T16:07:55;23.50;50.40
15543;DHT22;7873;52.230;12.856;2022-09-27T16:10:28;23.50;50.50
15543;DHT22;7873;52.230;12.856;2022-09-27T16:12:57;23.60;50.80
15543;DHT22;7873;52.230;12.856;2022-09-27T16:15:24;23.50;50.80
15543;DHT22;7873;52.230;12.856;2022-09-27T16:17:51;23.50;51.10
15543;DHT22;7873;52.230;12.856;2022-09-27T16:20:18;23.40;51.80
15543;DHT22;7873;52.230;12.856;2022-09-27T16:22:49;23.30;52.00